Ashiya Air Base, Japan

6:10 AM JST on September 22, 2014 (GMT +0900)
Akama Station(JR KYUSHU RAILWAY) | Change Station
CLOSE
Current Station
Personal Weather Station
Location: Munakata, FUKUOKA
Elevation: 33 ft
Nearby Weather Stations

Elev 33 ft 33.80 °N, 130.57 °E | Updated 1 second ago

Mostly Cloudy
Mostly Cloudy
67.7 °F
Feels Like 67.7 °F
N
3.5
Wind Variable Wind from South
Gusts 3.5 mph

Today
High -- | Low -- °F
--% Chance of Precip.
Yesterday
High -- | Low -- °F
Precip. -- in
6:05 AM 6:14 PM
Waning Crescent, 5% visible
Pressure 30.01 in
Visibility 6.2 miles
Clouds Few 2000 ft
Mostly Cloudy 2500 ft
Dew Point 65 °F
Humidity 90%
Rainfall 0.00 in
Snow Depth Not available.
UV 0 out of 12
Pollen Not available.
Air Quality Not available.
Flu Activity Not available.
METAR RJFR 212100Z 03008KT 9999 FEW020 BKN025 22/17 Q1016

More Conditions Fewer Conditions

Pressure 30.01 in
Visibility 6.2 miles
Clouds Few 2000 ft
Mostly Cloudy 2500 ft
Dew Point 65 °F
Humidity 90%
Rainfall 0.00 in
Snow Depth Not available.
UV 0 out of 12
Pollen Not available.
Air Quality Not available.
Flu Activity Not available.
METAR RJFR 212100Z 03008KT 9999 FEW020 BKN025 22/17 Q1016

More Conditions Fewer Conditions

10-Day Weather Forecast

Almanac

Astronomy

Sep. 22, 2014 Rise Set
Actual Time 6:05 AM JST 6:14 PM JST
Civil Twilight 5:40 AM JST 6:39 PM JST
Nautical Twilight 5:11 AM JST 7:08 PM JST
Astronomical Twilight 4:41 AM JST 7:38 PM JST
Moon 4:04 AM JST (9/22) 5:00 PM JST (9/22)
Length of Visible Light 12h 59m
Length of Day
12h 09m
Tomorrow will be 2m 5s shorter.
Waning Crescent, 5% of the Moon is Illuminated
Sep 21
Waning Crescent
Sep 24
New
Oct 1
First Quarter
Oct 8
Full
Oct 15
Last Quarter

Yesterday's Extremes

Country Highs Country Lows

Community

WunderPhotos

Upload Photos

1,755,259 photos uploaded!

Nearby

Snow Depth

Not available.

Earthquake Activity

City Distance Mag. Time & Date
No recent earthquake activity has been reported nearby.
Minimum magnitude displayed is 2.5.

Coastal Water Temperatures

Place Temperature
No Stations Reporting

Nearby Weather Stations